sensor_id;sensor_type;location;lat;lon;timestamp;temperature;humidity
23130;DHT22;11734;51.046;13.778;2023-08-24T00:01:53;19.00;99.90
23130;DHT22;11734;51.046;13.778;2023-08-24T00:04:20;19.00;99.90
23130;DHT22;11734;51.046;13.778;2023-08-24T00:06:47;19.10;99.90
23130;DHT22;11734;51.046;13.778;2023-08-24T00:09:14;19.00;99.90
23130;DHT22;11734;51.046;13.778;2023-08-24T00:11:42;19.00;99.90
23130;DHT22;11734;51.046;13.778;2023-08-24T00:14:09;19.00;99.90
23130;DHT22;11734;51.046;13.778;2023-08-24T00:16:36;19.00;99.90
23130;DHT22;11734;51.046;13.778;2023-08-24T00:19:03;18.90;99.90
23130;DHT22;11734;51.046;13.778;2023-08-24T00:21:30;19.00;99.90
23130;DHT22;11734;51.046;13.778;2023-08-24T00:23:57;19.00;99.90
23130;DHT22;11734;51.046;13.778;2023-08-24T00:26:26;18.90;99.90
23130;DHT22;11734;51.046;13.778;2023-08-24T00:28:53;19.00;99.90
23130;DHT22;11734;51.046;13.778;2023-08-24T00:31:20;18.50;99.90
23130;DHT22;11734;51.046;13.778;2023-08-24T00:33:48;19.00;99.90
23130;DHT22;11734;51.046;13.778;2023-08-24T00:36:17;18.90;99.90
23130;DHT22;11734;51.046;13.778;2023-08-24T00:38:47;18.90;99.90
23130;DHT22;11734;51.046;13.778;2023-08-24T00:41:17;18.90;99.90
23130;DHT22;11734;51.046;13.778;2023-08-24T00:43:44;18.90;99.90
23130;DHT22;11734;51.046;13.778;2023-08-24T00:48:39;18.80;99.90
23130;DHT22;11734;51.046;13.778;2023-08-24T00:53:35;18.70;99.90
23130;DHT22;11734;51.046;13.778;2023-08-24T00:56:05;18.70;99.90
23130;DHT22;11734;51.046;13.778;2023-08-24T00:58:33;18.70;99.90
23130;DHT22;11734;51.046;13.778;2023-08-24T01:03:27;18.60;99.90
23130;DHT22;11734;51.046;13.778;2023-08-24T01:05:54;18.60;99.90
23130;DHT22;11734;51.046;13.778;2023-08-24T01:08:23;18.50;99.90
23130;DHT22;11734;51.046;13.778;2023-08-24T01:11:05;18.60;99.90
23130;DHT22;11734;51.046;13.778;2023-08-24T01:16:35;18.40;99.90
23130;DHT22;11734;51.046;13.778;2023-08-24T01:19:14;18.40;99.90
23130;DHT22;11734;51.046;13.778;2023-08-24T01:21:43;18.30;99.90
23130;DHT22;11734;51.046;13.778;2023-08-24T01:24:17;18.30;99.90
23130;DHT22;11734;51.046;13.778;2023-08-24T01:29:13;18.30;99.90
23130;DHT22;11734;51.046;13.778;2023-08-24T01:31:42;18.20;99.90
23130;DHT22;11734;51.046;13.778;2023-08-24T01:34:10;18.20;99.90
23130;DHT22;11734;51.046;13.778;2023-08-24T01:36:37;18.10;99.90
23130;DHT22;11734;51.046;13.778;2023-08-24T01:39:28;18.10;99.90
23130;DHT22;11734;51.046;13.778;2023-08-24T01:44:29;18.10;99.90
23130;DHT22;11734;51.046;13.778;2023-08-24T01:47:03;18.10;99.90
23130;DHT22;11734;51.046;13.778;2023-08-24T01:49:32;18.00;99.90
23130;DHT22;11734;51.046;13.778;2023-08-24T01:52:01;18.00;99.90
23130;DHT22;11734;51.046;13.778;2023-08-24T01:56:55;17.90;99.90
23130;DHT22;11734;51.046;13.778;2023-08-24T01:59:22;17.90;99.90
23130;DHT22;11734;51.046;13.778;2023-08-24T02:01:49;17.90;99.90
23130;DHT22;11734;51.046;13.778;2023-08-24T02:04:16;17.90;99.90
23130;DHT22;11734;51.046;13.778;2023-08-24T02:06:43;17.80;99.90
23130;DHT22;11734;51.046;13.778;2023-08-24T02:11:37;17.70;99.90
23130;DHT22;11734;51.046;13.778;2023-08-24T02:14:05;17.70;99.90
23130;DHT22;11734;51.046;13.778;2023-08-24T02:16:36;17.80;99.90
23130;DHT22;11734;51.046;13.778;2023-08-24T02:19:03;17.70;99.90
23130;DHT22;11734;51.046;13.778;2023-08-24T02:21:30;17.70;99.90
23130;DHT22;11734;51.046;13.778;2023-08-24T02:23:58;17.70;99.90
23130;DHT22;11734;51.046;13.778;2023-08-24T02:26:25;17.70;99.90
23130;DHT22;11734;51.046;13.778;2023-08-24T02:31:19;17.50;99.90
23130;DHT22;11734;51.046;13.778;2023-08-24T02:33:47;17.50;99.90
23130;DHT22;11734;51.046;13.778;2023-08-24T02:36:16;17.50;99.90
23130;DHT22;11734;51.046;13.778;2023-08-24T02:38:43;17.50;99.90
23130;DHT22;11734;51.046;13.778;2023-08-24T02:41:10;17.50;99.90
23130;DHT22;11734;51.046;13.778;2023-08-24T02:43:37;17.50;99.90
23130;DHT22;11734;51.046;13.778;2023-08-24T02:46:06;17.40;99.90
23130;DHT22;11734;51.046;13.778;2023-08-24T02:48:34;17.40;99.90
23130;DHT22;11734;51.046;13.778;2023-08-24T02:51:02;17.40;99.90
23130;DHT22;11734;51.046;13.778;2023-08-24T02:53:30;17.40;99.90
23130;DHT22;11734;51.046;13.778;2023-08-24T02:55:57;17.40;99.90
23130;DHT22;11734;51.046;13.778;2023-08-24T03:03:19;17.20;99.90
23130;DHT22;11734;51.046;13.778;2023-08-24T03:06:00;17.10;99.90
23130;DHT22;11734;51.046;13.778;2023-08-24T03:08:32;17.20;99.90
23130;DHT22;11734;51.046;13.778;2023-08-24T03:11:01;17.20;99.90
23130;DHT22;11734;51.046;13.778;2023-08-24T03:13:28;17.20;99.90
23130;DHT22;11734;51.046;13.778;2023-08-24T03:15:56;17.30;99.90
23130;DHT22;11734;51.046;13.778;2023-08-24T03:18:27;17.20;99.90
23130;DHT22;11734;51.046;13.778;2023-08-24T03:20:54;17.20;99.90
23130;DHT22;11734;51.046;13.778;2023-08-24T03:23:21;17.10;99.90
23130;DHT22;11734;51.046;13.778;2023-08-24T03:28:16;17.00;99.90
23130;DHT22;11734;51.046;13.778;2023-08-24T03:35:43;16.90;99.90
23130;DHT22;11734;51.046;13.778;2023-08-24T03:38:10;16.90;99.90
23130;DHT22;11734;51.046;13.778;2023-08-24T03:40:37;16.90;99.90
23130;DHT22;11734;51.046;13.778;2023-08-24T03:43:04;17.30;99.90
23130;DHT22;11734;51.046;13.778;2023-08-24T03:50:25;16.80;99.90
23130;DHT22;11734;51.046;13.778;2023-08-24T03:52:54;16.90;99.90
23130;DHT22;11734;51.046;13.778;2023-08-24T03:55:21;16.80;99.90
23130;DHT22;11734;51.046;13.778;2023-08-24T03:57:48;16.80;99.90
23130;DHT22;11734;51.046;13.778;2023-08-24T04:00:16;16.90;99.90
23130;DHT22;11734;51.046;13.778;2023-08-24T04:02:44;16.90;99.90
23130;DHT22;11734;51.046;13.778;2023-08-24T04:05:23;16.90;99.90
23130;DHT22;11734;51.046;13.778;2023-08-24T04:07:50;16.90;99.90
23130;DHT22;11734;51.046;13.778;2023-08-24T04:10:17;16.90;99.90
23130;DHT22;11734;51.046;13.778;2023-08-24T04:12:44;16.80;99.90
23130;DHT22;11734;51.046;13.778;2023-08-24T04:15:10;16.90;99.90
23130;DHT22;11734;51.046;13.778;2023-08-24T04:17:38;16.80;99.90
23130;DHT22;11734;51.046;13.778;2023-08-24T04:20:08;16.90;99.90
23130;DHT22;11734;51.046;13.778;2023-08-24T04:22:35;16.80;99.90
23130;DHT22;11734;51.046;13.778;2023-08-24T04:25:03;16.80;99.90
23130;DHT22;11734;51.046;13.778;2023-08-24T04:27:30;16.80;99.90
23130;DHT22;11734;51.046;13.778;2023-08-24T04:29:57;16.90;99.90
23130;DHT22;11734;51.046;13.778;2023-08-24T04:32:24;16.50;99.90
23130;DHT22;11734;51.046;13.778;2023-08-24T04:34:51;16.90;99.90
23130;DHT22;11734;51.046;13.778;2023-08-24T04:37:18;17.00;99.90
23130;DHT22;11734;51.046;13.778;2023-08-24T04:39:45;17.00;99.90
23130;DHT22;11734;51.046;13.778;2023-08-24T04:44:40;16.90;99.90
23130;DHT22;11734;51.046;13.778;2023-08-24T04:47:07;17.00;99.90
23130;DHT22;11734;51.046;13.778;2023-08-24T04:52:04;17.10;99.90
23130;DHT22;11734;51.046;13.778;2023-08-24T04:54:32;17.10;99.90
23130;DHT22;11734;51.046;13.778;2023-08-24T04:56:59;17.00;99.90
23130;DHT22;11734;51.046;13.778;2023-08-24T04:59:26;17.20;99.90
23130;DHT22;11734;51.046;13.778;2023-08-24T05:11:42;17.20;99.90
23130;DHT22;11734;51.046;13.778;2023-08-24T05:16:38;17.30;99.90
23130;DHT22;11734;51.046;13.778;2023-08-24T05:19:04;17.30;99.90
23130;DHT22;11734;51.046;13.778;2023-08-24T05:23:59;17.20;99.90
23130;DHT22;11734;51.046;13.778;2023-08-24T05:31:21;17.20;99.90
23130;DHT22;11734;51.046;13.778;2023-08-24T05:48:51;17.50;99.90
23130;DHT22;11734;51.046;13.778;2023-08-24T05:51:18;17.70;99.90
23130;DHT22;11734;51.046;13.778;2023-08-24T05:53:45;17.60;99.90
23130;DHT22;11734;51.046;13.778;2023-08-24T05:56:12;17.70;99.90
23130;DHT22;11734;51.046;13.778;2023-08-24T05:58:38;17.60;99.90
23130;DHT22;11734;51.046;13.778;2023-08-24T06:01:05;17.70;99.90
23130;DHT22;11734;51.046;13.778;2023-08-24T06:03:33;17.80;99.90
23130;DHT22;11734;51.046;13.778;2023-08-24T06:06:01;17.90;99.90
23130;DHT22;11734;51.046;13.778;2023-08-24T06:08:29;18.00;99.90
23130;DHT22;11734;51.046;13.778;2023-08-24T06:10:57;18.10;99.90
23130;DHT22;11734;51.046;13.778;2023-08-24T06:13:24;18.10;99.90
23130;DHT22;11734;51.046;13.778;2023-08-24T06:15:52;18.10;99.90
23130;DHT22;11734;51.046;13.778;2023-08-24T06:18:19;18.20;99.90
23130;DHT22;11734;51.046;13.778;2023-08-24T06:20:46;18.30;99.90
23130;DHT22;11734;51.046;13.778;2023-08-24T06:23:19;18.30;99.90
23130;DHT22;11734;51.046;13.778;2023-08-24T06:25:46;18.40;99.90
23130;DHT22;11734;51.046;13.778;2023-08-24T06:28:13;18.50;99.90
23130;DHT22;11734;51.046;13.778;2023-08-24T06:30:41;18.60;99.90
23130;DHT22;11734;51.046;13.778;2023-08-24T06:33:09;18.80;99.90
23130;DHT22;11734;51.046;13.778;2023-08-24T06:35:37;18.70;99.90
23130;DHT22;11734;51.046;13.778;2023-08-24T06:38:04;19.00;99.90
23130;DHT22;11734;51.046;13.778;2023-08-24T06:40:31;19.00;99.90
23130;DHT22;11734;51.046;13.778;2023-08-24T06:42:58;19.00;99.90
23130;DHT22;11734;51.046;13.778;2023-08-24T06:45:26;19.10;99.90
23130;DHT22;11734;51.046;13.778;2023-08-24T06:47:53;19.20;99.90
23130;DHT22;11734;51.046;13.778;2023-08-24T06:50:21;19.30;99.90
23130;DHT22;11734;51.046;13.778;2023-08-24T06:52:48;19.40;99.90
23130;DHT22;11734;51.046;13.778;2023-08-24T06:55:15;19.40;99.90
23130;DHT22;11734;51.046;13.778;2023-08-24T06:57:47;19.60;99.90
23130;DHT22;11734;51.046;13.778;2023-08-24T07:00:14;19.60;99.90
23130;DHT22;11734;51.046;13.778;2023-08-24T07:02:41;19.70;99.90
23130;DHT22;11734;51.046;13.778;2023-08-24T07:05:08;19.70;99.90
23130;DHT22;11734;51.046;13.778;2023-08-24T07:07:36;19.80;99.90
23130;DHT22;11734;51.046;13.778;2023-08-24T07:10:03;20.00;99.90
23130;DHT22;11734;51.046;13.778;2023-08-24T07:14:58;20.10;99.90
23130;DHT22;11734;51.046;13.778;2023-08-24T07:17:25;20.20;99.90
23130;DHT22;11734;51.046;13.778;2023-08-24T07:19:52;20.30;99.90
23130;DHT22;11734;51.046;13.778;2023-08-24T07:22:19;20.40;99.90
23130;DHT22;11734;51.046;13.778;2023-08-24T07:24:46;20.50;99.90
23130;DHT22;11734;51.046;13.778;2023-08-24T07:29:44;20.70;99.90
23130;DHT22;11734;51.046;13.778;2023-08-24T08:04:09;22.10;99.90
23130;DHT22;11734;51.046;13.778;2023-08-24T08:06:36;22.20;99.90
23130;DHT22;11734;51.046;13.778;2023-08-24T08:09:03;22.30;99.90
23130;DHT22;11734;51.046;13.778;2023-08-24T08:26:16;23.50;99.90
23130;DHT22;11734;51.046;13.778;2023-08-24T08:28:43;23.50;99.90
23130;DHT22;11734;51.046;13.778;2023-08-24T08:31:11;23.70;99.90
23130;DHT22;11734;51.046;13.778;2023-08-24T08:41:04;24.90;99.90
23130;DHT22;11734;51.046;13.778;2023-08-24T08:43:31;25.30;99.90
23130;DHT22;11734;51.046;13.778;2023-08-24T08:45:59;25.60;99.90
23130;DHT22;11734;51.046;13.778;2023-08-24T08:48:28;26.00;99.90
23130;DHT22;11734;51.046;13.778;2023-08-24T08:50:57;26.40;99.90
23130;DHT22;11734;51.046;13.778;2023-08-24T08:53:24;27.00;99.90
23130;DHT22;11734;51.046;13.778;2023-08-24T08:58:20;28.40;99.90
23130;DHT22;11734;51.046;13.778;2023-08-24T09:03:18;29.00;99.90
23130;DHT22;11734;51.046;13.778;2023-08-24T09:05:46;29.00;99.90
23130;DHT22;11734;51.046;13.778;2023-08-24T09:08:16;29.10;99.90
23130;DHT22;11734;51.046;13.778;2023-08-24T09:10:44;29.20;98.50
23130;DHT22;11734;51.046;13.778;2023-08-24T09:15:39;29.50;97.20
23130;DHT22;11734;51.046;13.778;2023-08-24T09:20:35;30.30;95.10
23130;DHT22;11734;51.046;13.778;2023-08-24T09:23:02;30.60;94.40
23130;DHT22;11734;51.046;13.778;2023-08-24T09:30:32;31.60;90.80
23130;DHT22;11734;51.046;13.778;2023-08-24T09:33:02;31.80;90.20
23130;DHT22;11734;51.046;13.778;2023-08-24T09:40:55;33.40;77.10
23130;DHT22;11734;51.046;13.778;2023-08-24T09:43:23;33.40;78.30
23130;DHT22;11734;51.046;13.778;2023-08-24T09:45:54;33.10;77.60
23130;DHT22;11734;51.046;13.778;2023-08-24T09:48:23;32.90;76.30
23130;DHT22;11734;51.046;13.778;2023-08-24T09:50:55;33.00;75.20
23130;DHT22;11734;51.046;13.778;2023-08-24T09:53:23;33.20;74.20
23130;DHT22;11734;51.046;13.778;2023-08-24T10:00:56;34.80;71.40
23130;DHT22;11734;51.046;13.778;2023-08-24T10:05:56;34.90;74.30
23130;DHT22;11734;51.046;13.778;2023-08-24T10:08:41;34.00;74.50
23130;DHT22;11734;51.046;13.778;2023-08-24T10:11:10;33.80;73.00
23130;DHT22;11734;51.046;13.778;2023-08-24T10:16:35;33.20;70.10
23130;DHT22;11734;51.046;13.778;2023-08-24T10:19:03;33.10;70.90
23130;DHT22;11734;51.046;13.778;2023-08-24T10:21:30;32.80;72.40
23130;DHT22;11734;51.046;13.778;2023-08-24T10:23:58;32.90;72.40
23130;DHT22;11734;51.046;13.778;2023-08-24T10:26:26;32.70;72.60
23130;DHT22;11734;51.046;13.778;2023-08-24T10:28:55;32.80;75.00
23130;DHT22;11734;51.046;13.778;2023-08-24T10:31:22;32.80;75.30
23130;DHT22;11734;51.046;13.778;2023-08-24T10:33:50;32.80;74.00
23130;DHT22;11734;51.046;13.778;2023-08-24T10:36:19;32.90;72.70
23130;DHT22;11734;51.046;13.778;2023-08-24T10:38:46;32.80;70.10
23130;DHT22;11734;51.046;13.778;2023-08-24T10:41:13;32.60;71.30
23130;DHT22;11734;51.046;13.778;2023-08-24T10:43:48;32.60;71.90
23130;DHT22;11734;51.046;13.778;2023-08-24T10:46:16;32.50;72.70
23130;DHT22;11734;51.046;13.778;2023-08-24T10:53:59;31.90;71.10
23130;DHT22;11734;51.046;13.778;2023-08-24T10:56:37;31.60;72.00
23130;DHT22;11734;51.046;13.778;2023-08-24T10:59:16;31.90;72.90
23130;DHT22;11734;51.046;13.778;2023-08-24T11:04:19;32.50;72.60
23130;DHT22;11734;51.046;13.778;2023-08-24T11:06:59;32.50;70.60
23130;DHT22;11734;51.046;13.778;2023-08-24T11:09:45;32.30;73.20
23130;DHT22;11734;51.046;13.778;2023-08-24T11:14:51;31.00;73.70
23130;DHT22;11734;51.046;13.778;2023-08-24T11:19:53;30.10;75.50
23130;DHT22;11734;51.046;13.778;2023-08-24T11:22:22;30.00;76.50
23130;DHT22;11734;51.046;13.778;2023-08-24T11:24:49;29.90;74.80
23130;DHT22;11734;51.046;13.778;2023-08-24T11:27:16;30.00;76.00
23130;DHT22;11734;51.046;13.778;2023-08-24T11:29:44;30.10;75.50
23130;DHT22;11734;51.046;13.778;2023-08-24T11:32:10;30.10;77.70
23130;DHT22;11734;51.046;13.778;2023-08-24T11:34:38;30.10;74.70
23130;DHT22;11734;51.046;13.778;2023-08-24T11:37:05;30.00;73.60
23130;DHT22;11734;51.046;13.778;2023-08-24T11:39:32;30.00;76.60
23130;DHT22;11734;51.046;13.778;2023-08-24T11:42:05;30.60;76.30
23130;DHT22;11734;51.046;13.778;2023-08-24T11:44:48;31.40;75.20
23130;DHT22;11734;51.046;13.778;2023-08-24T11:47:16;32.00;71.80
23130;DHT22;11734;51.046;13.778;2023-08-24T11:49:43;32.50;72.00
23130;DHT22;11734;51.046;13.778;2023-08-24T11:52:10;32.40;69.80
23130;DHT22;11734;51.046;13.778;2023-08-24T11:54:37;31.80;70.60
23130;DHT22;11734;51.046;13.778;2023-08-24T11:57:08;31.30;71.80
23130;DHT22;11734;51.046;13.778;2023-08-24T11:59:36;31.00;76.20
23130;DHT22;11734;51.046;13.778;2023-08-24T12:02:04;30.60;75.70
23130;DHT22;11734;51.046;13.778;2023-08-24T12:04:39;30.30;75.10
23130;DHT22;11734;51.046;13.778;2023-08-24T12:07:13;30.00;73.70
23130;DHT22;11734;51.046;13.778;2023-08-24T12:09:41;29.80;75.10
23130;DHT22;11734;51.046;13.778;2023-08-24T12:12:16;29.70;76.20
23130;DHT22;11734;51.046;13.778;2023-08-24T12:14:43;29.50;76.40
23130;DHT22;11734;51.046;13.778;2023-08-24T12:19:53;29.10;77.80
23130;DHT22;11734;51.046;13.778;2023-08-24T12:22:22;29.00;79.40
23130;DHT22;11734;51.046;13.778;2023-08-24T12:27:23;28.90;80.20
23130;DHT22;11734;51.046;13.778;2023-08-24T12:29:50;29.10;83.10
23130;DHT22;11734;51.046;13.778;2023-08-24T12:32:18;29.30;82.30
23130;DHT22;11734;51.046;13.778;2023-08-24T12:34:52;29.50;83.40
23130;DHT22;11734;51.046;13.778;2023-08-24T12:37:21;29.60;79.80
23130;DHT22;11734;51.046;13.778;2023-08-24T12:39:48;29.60;78.50
23130;DHT22;11734;51.046;13.778;2023-08-24T12:42:15;29.50;79.70
23130;DHT22;11734;51.046;13.778;2023-08-24T12:44:42;29.30;80.00
23130;DHT22;11734;51.046;13.778;2023-08-24T12:47:09;29.20;79.70
23130;DHT22;11734;51.046;13.778;2023-08-24T12:49:36;29.10;82.70
23130;DHT22;11734;51.046;13.778;2023-08-24T12:52:03;29.00;81.50
23130;DHT22;11734;51.046;13.778;2023-08-24T12:54:30;28.90;81.10
23130;DHT22;11734;51.046;13.778;2023-08-24T12:56:57;28.90;83.20
23130;DHT22;11734;51.046;13.778;2023-08-24T12:59:24;29.00;82.70
23130;DHT22;11734;51.046;13.778;2023-08-24T13:01:51;29.30;83.90
23130;DHT22;11734;51.046;13.778;2023-08-24T13:04:18;29.70;85.90
23130;DHT22;11734;51.046;13.778;2023-08-24T13:06:45;30.00;83.20
23130;DHT22;11734;51.046;13.778;2023-08-24T13:09:13;30.30;81.60
23130;DHT22;11734;51.046;13.778;2023-08-24T13:11:40;30.50;80.70
23130;DHT22;11734;51.046;13.778;2023-08-24T13:14:07;30.40;78.90
23130;DHT22;11734;51.046;13.778;2023-08-24T13:16:34;30.30;79.30
23130;DHT22;11734;51.046;13.778;2023-08-24T13:19:01;30.10;79.80
23130;DHT22;11734;51.046;13.778;2023-08-24T13:21:28;29.80;81.80
23130;DHT22;11734;51.046;13.778;2023-08-24T13:23:55;29.80;82.90
23130;DHT22;11734;51.046;13.778;2023-08-24T13:26:22;29.60;82.70
23130;DHT22;11734;51.046;13.778;2023-08-24T13:28:52;29.50;83.20
23130;DHT22;11734;51.046;13.778;2023-08-24T13:31:19;29.50;83.70
23130;DHT22;11734;51.046;13.778;2023-08-24T13:33:46;29.40;83.60
23130;DHT22;11734;51.046;13.778;2023-08-24T13:36:13;29.40;85.20
23130;DHT22;11734;51.046;13.778;2023-08-24T13:38:40;29.40;84.60
23130;DHT22;11734;51.046;13.778;2023-08-24T13:41:06;29.40;85.30
23130;DHT22;11734;51.046;13.778;2023-08-24T13:43:33;29.40;84.50
23130;DHT22;11734;51.046;13.778;2023-08-24T13:46:00;29.40;86.30
23130;DHT22;11734;51.046;13.778;2023-08-24T13:48:30;29.50;84.80
23130;DHT22;11734;51.046;13.778;2023-08-24T13:51:01;29.50;84.10
23130;DHT22;11734;51.046;13.778;2023-08-24T13:53:28;29.40;83.80
23130;DHT22;11734;51.046;13.778;2023-08-24T13:55:54;29.40;83.80
23130;DHT22;11734;51.046;13.778;2023-08-24T13:58:21;29.30;85.10
23130;DHT22;11734;51.046;13.778;2023-08-24T14:00:55;29.30;84.50
23130;DHT22;11734;51.046;13.778;2023-08-24T14:03:22;29.30;85.30
23130;DHT22;11734;51.046;13.778;2023-08-24T14:05:49;29.40;86.80
23130;DHT22;11734;51.046;13.778;2023-08-24T14:08:17;29.40;85.40
23130;DHT22;11734;51.046;13.778;2023-08-24T14:10:44;29.40;86.00
23130;DHT22;11734;51.046;13.778;2023-08-24T14:13:11;29.50;85.40
23130;DHT22;11734;51.046;13.778;2023-08-24T14:15:38;29.50;88.80
23130;DHT22;11734;51.046;13.778;2023-08-24T14:18:05;29.70;87.50
23130;DHT22;11734;51.046;13.778;2023-08-24T14:20:32;29.80;85.00
23130;DHT22;11734;51.046;13.778;2023-08-24T14:22:59;29.80;86.10
23130;DHT22;11734;51.046;13.778;2023-08-24T14:25:25;29.80;87.60
23130;DHT22;11734;51.046;13.778;2023-08-24T14:27:53;29.40;84.20
23130;DHT22;11734;51.046;13.778;2023-08-24T14:30:31;29.70;85.60
23130;DHT22;11734;51.046;13.778;2023-08-24T14:32:58;29.70;87.70
23130;DHT22;11734;51.046;13.778;2023-08-24T14:35:25;29.70;85.30
23130;DHT22;11734;51.046;13.778;2023-08-24T14:37:52;29.60;86.30
23130;DHT22;11734;51.046;13.778;2023-08-24T14:40:19;29.60;86.00
23130;DHT22;11734;51.046;13.778;2023-08-24T14:42:46;29.50;86.50
23130;DHT22;11734;51.046;13.778;2023-08-24T14:45:16;29.50;86.60
23130;DHT22;11734;51.046;13.778;2023-08-24T14:47:44;29.50;87.80
23130;DHT22;11734;51.046;13.778;2023-08-24T14:50:12;29.50;87.50
23130;DHT22;11734;51.046;13.778;2023-08-24T14:52:40;29.60;88.50
23130;DHT22;11734;51.046;13.778;2023-08-24T14:55:09;29.50;87.10
23130;DHT22;11734;51.046;13.778;2023-08-24T14:57:36;29.50;89.10
23130;DHT22;11734;51.046;13.778;2023-08-24T15:00:04;29.50;88.60
23130;DHT22;11734;51.046;13.778;2023-08-24T15:02:32;29.50;88.50
23130;DHT22;11734;51.046;13.778;2023-08-24T15:04:59;29.60;88.60
23130;DHT22;11734;51.046;13.778;2023-08-24T15:07:27;29.50;87.50
23130;DHT22;11734;51.046;13.778;2023-08-24T15:09:54;29.30;89.00
23130;DHT22;11734;51.046;13.778;2023-08-24T15:12:21;29.50;88.50
23130;DHT22;11734;51.046;13.778;2023-08-24T15:15:02;29.40;87.50
23130;DHT22;11734;51.046;13.778;2023-08-24T15:20:18;29.30;87.70
23130;DHT22;11734;51.046;13.778;2023-08-24T15:22:45;29.30;89.20
23130;DHT22;11734;51.046;13.778;2023-08-24T15:25:12;29.30;90.00
23130;DHT22;11734;51.046;13.778;2023-08-24T15:27:39;29.30;88.30
23130;DHT22;11734;51.046;13.778;2023-08-24T15:30:07;29.30;88.30
23130;DHT22;11734;51.046;13.778;2023-08-24T15:32:34;29.30;87.90
23130;DHT22;11734;51.046;13.778;2023-08-24T15:35:01;29.30;88.20
23130;DHT22;11734;51.046;13.778;2023-08-24T15:37:29;29.30;88.20
23130;DHT22;11734;51.046;13.778;2023-08-24T15:39:56;29.40;89.00
23130;DHT22;11734;51.046;13.778;2023-08-24T15:42:24;29.40;89.30
23130;DHT22;11734;51.046;13.778;2023-08-24T15:44:51;29.40;90.30
23130;DHT22;11734;51.046;13.778;2023-08-24T15:47:17;29.30;88.40
23130;DHT22;11734;51.046;13.778;2023-08-24T15:49:44;29.40;88.40
23130;DHT22;11734;51.046;13.778;2023-08-24T15:52:11;29.40;89.10
23130;DHT22;11734;51.046;13.778;2023-08-24T15:54:38;29.40;88.40
23130;DHT22;11734;51.046;13.778;2023-08-24T15:57:05;29.40;88.90
23130;DHT22;11734;51.046;13.778;2023-08-24T15:59:33;29.20;89.30
23130;DHT22;11734;51.046;13.778;2023-08-24T16:02:00;29.10;89.50
23130;DHT22;11734;51.046;13.778;2023-08-24T16:04:27;29.10;89.60
23130;DHT22;11734;51.046;13.778;2023-08-24T16:06:54;29.00;90.00
23130;DHT22;11734;51.046;13.778;2023-08-24T16:09:21;28.90;90.40
23130;DHT22;11734;51.046;13.778;2023-08-24T16:11:48;29.00;90.40
23130;DHT22;11734;51.046;13.778;2023-08-24T16:14:14;29.00;90.80
23130;DHT22;11734;51.046;13.778;2023-08-24T16:16:41;29.00;90.40
23130;DHT22;11734;51.046;13.778;2023-08-24T16:19:08;29.00;90.50
23130;DHT22;11734;51.046;13.778;2023-08-24T16:21:35;29.00;90.00
23130;DHT22;11734;51.046;13.778;2023-08-24T16:24:02;29.00;90.00
23130;DHT22;11734;51.046;13.778;2023-08-24T16:26:29;28.90;90.20
23130;DHT22;11734;51.046;13.778;2023-08-24T16:28:56;28.90;90.30
23130;DHT22;11734;51.046;13.778;2023-08-24T16:33:50;28.70;90.00
23130;DHT22;11734;51.046;13.778;2023-08-24T16:36:17;28.60;90.40
23130;DHT22;11734;51.046;13.778;2023-08-24T16:38:44;28.50;90.90
23130;DHT22;11734;51.046;13.778;2023-08-24T16:41:11;28.40;90.60
23130;DHT22;11734;51.046;13.778;2023-08-24T16:43:38;28.40;90.80
23130;DHT22;11734;51.046;13.778;2023-08-24T16:46:05;28.30;90.90
23130;DHT22;11734;51.046;13.778;2023-08-24T16:48:32;28.30;90.90
23130;DHT22;11734;51.046;13.778;2023-08-24T16:50:59;28.30;91.40
23130;DHT22;11734;51.046;13.778;2023-08-24T16:53:25;28.20;91.60
23130;DHT22;11734;51.046;13.778;2023-08-24T16:55:54;28.20;91.70
23130;DHT22;11734;51.046;13.778;2023-08-24T16:58:21;28.10;91.60
23130;DHT22;11734;51.046;13.778;2023-08-24T17:00:48;28.00;91.90
23130;DHT22;11734;51.046;13.778;2023-08-24T17:03:15;28.00;91.80
23130;DHT22;11734;51.046;13.778;2023-08-24T17:05:42;28.00;91.90
23130;DHT22;11734;51.046;13.778;2023-08-24T17:08:09;27.90;91.90
23130;DHT22;11734;51.046;13.778;2023-08-24T17:10:37;27.90;91.90
23130;DHT22;11734;51.046;13.778;2023-08-24T17:15:51;27.90;92.20
23130;DHT22;11734;51.046;13.778;2023-08-24T17:18:19;27.90;92.40
23130;DHT22;11734;51.046;13.778;2023-08-24T17:20:46;27.80;92.60
23130;DHT22;11734;51.046;13.778;2023-08-24T17:23:14;27.70;97.00
23130;DHT22;11734;51.046;13.778;2023-08-24T17:28:10;27.60;92.90
23130;DHT22;11734;51.046;13.778;2023-08-24T17:30:37;27.60;93.20
23130;DHT22;11734;51.046;13.778;2023-08-24T17:33:04;27.50;93.30
23130;DHT22;11734;51.046;13.778;2023-08-24T17:35:31;27.40;93.50
23130;DHT22;11734;51.046;13.778;2023-08-24T17:38:00;27.30;93.70
23130;DHT22;11734;51.046;13.778;2023-08-24T17:42:54;27.20;93.60
23130;DHT22;11734;51.046;13.778;2023-08-24T17:45:21;27.10;94.40
23130;DHT22;11734;51.046;13.778;2023-08-24T17:47:49;27.00;94.30
23130;DHT22;11734;51.046;13.778;2023-08-24T17:50:17;26.90;94.60
23130;DHT22;11734;51.046;13.778;2023-08-24T17:52:44;26.80;95.00
23130;DHT22;11734;51.046;13.778;2023-08-24T17:55:11;26.70;95.30
23130;DHT22;11734;51.046;13.778;2023-08-24T17:57:38;26.70;95.40
23130;DHT22;11734;51.046;13.778;2023-08-24T18:02:34;26.50;95.30
23130;DHT22;11734;51.046;13.778;2023-08-24T18:07:33;26.30;95.80
23130;DHT22;11734;51.046;13.778;2023-08-24T18:10:00;26.30;96.20
23130;DHT22;11734;51.046;13.778;2023-08-24T18:12:27;26.20;96.50
23130;DHT22;11734;51.046;13.778;2023-08-24T18:14:53;26.10;96.70
23130;DHT22;11734;51.046;13.778;2023-08-24T18:17:20;26.00;97.10
23130;DHT22;11734;51.046;13.778;2023-08-24T18:22:15;25.90;97.40
23130;DHT22;11734;51.046;13.778;2023-08-24T18:24:42;25.80;97.90
23130;DHT22;11734;51.046;13.778;2023-08-24T18:27:09;25.80;98.30
23130;DHT22;11734;51.046;13.778;2023-08-24T18:29:36;25.70;98.60
23130;DHT22;11734;51.046;13.778;2023-08-24T18:32:03;25.60;98.90
23130;DHT22;11734;51.046;13.778;2023-08-24T18:34:31;25.60;99.30
23130;DHT22;11734;51.046;13.778;2023-08-24T18:39:25;25.50;99.50
23130;DHT22;11734;51.046;13.778;2023-08-24T18:41:52;25.30;99.90
23130;DHT22;11734;51.046;13.778;2023-08-24T18:44:19;25.30;99.90
23130;DHT22;11734;51.046;13.778;2023-08-24T18:46:46;25.30;99.90
23130;DHT22;11734;51.046;13.778;2023-08-24T18:49:14;25.20;99.90
23130;DHT22;11734;51.046;13.778;2023-08-24T18:51:42;25.30;99.90